Flight Track Log - Related Links

Times and Time Zones

All times are in EDT time to prevent confusion due to time zone crossing. See the CHQ5345 flight status page for this flight to view local times or setup timezone preferences in your user account.

Time Position Orientation Groundspeed Altitude Reporting Facility
EDT Latitude Longitude Course Direction KTS MPH feet Rate Location/Type
Tue 11:40:51 AM 43.0811 -77.7039 203° Southwest 154 177 2,200  Level Cleveland Center
Tue 11:41:29 AM 43.0728 -77.7378 251° West 215 247 3,400 1,740 Climbing Cleveland Center
Tue 11:42:31 AM 43.0864 -77.8128 284° West 205 236 5,100 2,177 Climbing Cleveland Center
Tue 11:43:00 AM 43.1592 -78.1096 277° West  Level FlightAware Approximate
Tue 11:43:33 AM 43.1044 -77.8975 286° West 219 252 7,900  Level Cleveland Center
Tue 11:44:00 AM 43.1697 -78.2210 281° West  Level FlightAware Approximate
Tue 11:44:34 AM 43.1200 -77.9856 284° West 229 264 9,800  Level Cleveland Center
Tue 11:45:00 AM 43.1855 -78.3314 281° West  Level FlightAware Approximate
Tue 11:45:36 AM 43.1339 -78.0853 281° West 261 300 11,400  Level Cleveland Center
Tue 11:46:38 AM 43.1289 -78.2208 267° West 294 338 13,500 1,951 Climbing Cleveland Center
Tue 11:47:39 AM 43.1261 -78.3356 268° West 298 343 15,400 1,902 Climbing Cleveland Center
Tue 11:48:41 AM 43.1239 -78.4489 268° West 299 344 17,400 2,129 Climbing Cleveland Center
Tue 11:49:43 AM 43.1211 -78.5647 268° West 307 353 19,800 2,098 Climbing Cleveland Center
Tue 11:50:44 AM 43.1194 -78.6775 269° West 298 343 21,700 1,902 Climbing Cleveland Center
Tue 11:51:46 AM 43.1153 -78.7897 267° West 297 342 23,700 2,111 Climbing Cleveland Center
Tue 11:52:32 AM 43.1000 -78.8833 257° West 290 334 25,500 1,755 Climbing Toronto Center
Tue 11:53:32 AM 43.1000 -78.9667 270° West 290 334 26,800 1,250 Climbing Toronto Center
Tue 11:54:32 AM 43.1000 -79.0833 270° West 300 345 28,000 1,400 Climbing Toronto Center
Tue 11:55:32 AM 43.1000 -79.2167 270° West 310 357 29,600 1,450 Climbing Toronto Center
Tue 11:56:32 AM 43.1000 -79.3333 270° West 310 357 30,900 1,300 Climbing Toronto Center
Tue 11:57:32 AM 43.0833 -79.4500 259° West 310 357 32,200 1,450 Climbing Toronto Center
Tue 11:58:32 AM 43.0833 -79.5667 270° West 310 357 33,800 600 Climbing Toronto Center
Tue 12:00:32 PM 43.0833 -79.8167 270° West 310 357 34,000 67 Climbing Toronto Center
Tue 12:01:32 PM 43.0833 -79.9333 270° West 320 368 34,000  Level Toronto Center
Tue 12:02:32 PM 43.0667 -80.0667 260° West 340 391 34,000  Level Toronto Center
Tue 12:03:32 PM 43.0667 -80.1833 270° West 350 403 34,000  Level Toronto Center
Tue 12:04:32 PM 43.0667 -80.3333 270° West 360 414 34,000  Level Toronto Center
Tue 12:06:10 PM 43.0611 -80.5708 268° West 371 427 34,000  Level Cleveland Center
Tue 12:07:32 PM 43.0500 -80.7500 265° West 370 426 34,000  Level Toronto Center
Tue 12:08:32 PM 43.0333 -80.9167 262° West 380 437 34,000  Level Toronto Center
Tue 12:09:32 PM 43.0167 -81.0500 260° West 380 437 34,000  Level Toronto Center
Tue 12:10:32 PM 43.0167 -81.2000 270° West 380 437 34,000  Level Toronto Center
Tue 12:11:32 PM 43.0167 -81.3500 270° West 390 449 34,000  Level Toronto Center
Tue 12:12:32 PM 43.0167 -81.4833 270° West 390 449 34,000  Level Toronto Center
Tue 12:14:24 PM 43.0267 -81.7483 273° West 391 450 34,000  Level Cleveland Center
Tue 12:15:32 PM 43.0000 -81.9333 259° West 390 449 34,000  Level Toronto Center
Tue 12:16:32 PM 43.0000 -82.0667 270° West 390 449 34,000  Level Toronto Center
Tue 12:17:32 PM 43.0000 -82.2333 270° West 400 460 34,000  Level Toronto Center
Tue 12:18:32 PM 43.0000 -82.3667 270° West 400 460 34,000  Level Toronto Center
Tue 12:19:32 PM 43.0000 -82.5333 270° West 400 460 34,000  Level Toronto Center
Tue 12:20:35 PM 43.0036 -82.6761 272° West 396 456 34,000  Level Cleveland Center
Tue 12:21:37 PM 42.9975 -82.8544 267° West 396 456 34,000  Level Cleveland Center
Tue 12:22:39 PM 42.9878 -83.0003 265° West 392 451 34,000 -97 Level Cleveland Center
Tue 12:23:41 PM 42.9792 -83.1453 265° West 389 448 33,800 -339 Descending Cleveland Center
Tue 12:24:43 PM 42.9708 -83.2936 266° West 390 449 33,300 -484 Descending Cleveland Center
Tue 12:25:45 PM 42.9611 -83.4439 265° West 399 459 32,800 -484 Descending Cleveland Center
Tue 12:26:47 PM 42.9514 -83.5967 265° West 405 466 32,300 -387 Descending Cleveland Center
Tue 12:27:49 PM 42.9403 -83.7803 265° West 408 470 32,000 -145 Descending Cleveland Center
Tue 12:28:51 PM 42.9300 -83.9286 265° West 401 461 32,000  Level Cleveland Center
Tue 12:29:53 PM 42.9197 -84.0739 265° West 390 449 32,000  Level Cleveland Center
Tue 12:30:55 PM 42.9108 -84.2197 265° West 390 449 32,000  Level Cleveland Center
Tue 12:32:32 PM 42.8833 -84.4500 261° West 390 449 32,000  Level Toronto Center
Tue 12:33:11 PM 42.8867 -84.5567 272° West 386 444 32,000  Level Chicago Center
Tue 12:34:01 PM 42.8744 -84.6731 262° West 386 444 32,000  Level Cleveland Center
Tue 12:35:32 PM 42.8500 -84.9167 262° West 400 460 32,000  Level Toronto Center
Tue 12:36:05 PM 42.8439 -84.9714 261° West 397 457 32,000  Level Cleveland Center
Tue 12:37:07 PM 42.8244 -85.1508 262° West 398 458 32,000  Level Cleveland Center
Tue 12:38:09 PM 42.8083 -85.3014 262° West 398 458 32,000  Level Cleveland Center
Tue 12:39:11 PM 42.7919 -85.4522 262° West 400 460 32,000 -823 Level Cleveland Center
Tue 12:40:13 PM 42.7692 -85.6017 258° West 400 460 30,300 -2,146 Descending Cleveland Center
Tue 12:41:14 PM 42.7433 -85.7436 256° West 391 450 27,600 -2,497 Descending Cleveland Center
Tue 12:43:18 PM 42.6936 -86.0153 256° West 371 427 22,600 -2,250 Descending Cleveland Center
Tue 12:44:34 PM 42.6578 -86.2078 256° West 372 428 20,100 -1,130 Descending Chicago Center
Tue 12:45:36 PM 42.6319 -86.3444 256° West 372 428 20,000 -677 Descending Chicago Center
Tue 12:46:38 PM 42.6067 -86.4789 256° West 371 427 18,700 -1,680 Descending Chicago Center
Tue 12:47:41 PM 42.5819 -86.6111 256° West 365 420 16,500 -2,016 Descending Chicago Center
Tue 12:48:43 PM 42.5583 -86.7425 256° West 359 413 14,500 -2,032 Descending Chicago Center
Tue 12:49:45 PM 42.5231 -86.8669 249° West 358 412 12,300 -1,656 Descending Chicago Center
Tue 12:51:26 PM 42.4667 -87.0833 251° West 320 368 10,000 -1,065 Descending Chicago TRACON
Tue 12:52:51 PM 42.4258 -87.2197 248° West 279 321 9,000 -367 Descending Chicago Center
Tue 12:53:53 PM 42.3814 -87.2953 231° Southwest 289 333 9,100 48 Climbing Chicago Center
Tue 12:54:55 PM 42.2869 -87.2867 176° South 295 339 9,100 -145 Level Chicago Center
Tue 12:55:57 PM 42.2103 -87.2506 161° South 295 339 8,800 -720 Descending Chicago Center
Tue 12:57:00 PM 42.1294 -87.2069 158° South 293 337 7,600 -864 Descending Chicago Center
Tue 12:58:02 PM 42.0528 -87.2006 176° South 276 318 7,000 -242 Descending Chicago Center
Tue 12:59:04 PM 41.9858 -87.2292 198° South 278 320 7,100 32 Climbing Chicago Center
Tue 01:01:08 PM 41.9828 -87.4267 269° West 248 285 7,100 -194 Level Chicago Center
Tue 01:02:10 PM 41.9819 -87.5125 269° West 218 251 6,500 -919 Descending Chicago Center
Tue 01:03:12 PM 41.9828 -87.5931 271° West 217 250 5,200 -1,210 Descending Chicago Center
Tue 01:04:14 PM 41.9831 -87.6686 270° West 192 221 4,000 -1,065 Descending Chicago Center
Tue 01:05:16 PM 41.9833 -87.7358 270° West 186 214 3,000 -871 Descending Chicago Center
Tue 01:07:20 PM 41.9831 -87.8519 270° West 144 166 1,300 -823 Descending Chicago Center

Login

Don't have an account? Register now (free) for customized features, flight alerts, and more!